createdAt,value
2018-07-31T00:02:05.048Z,23.80
2018-07-31T00:05:10.289Z,23.77
2018-07-31T00:08:16.260Z,23.72
2018-07-31T00:11:22.882Z,23.70
2018-07-31T00:14:28.806Z,23.67
2018-07-31T00:17:36.029Z,23.63
2018-07-31T00:20:41.730Z,23.61
2018-07-31T00:23:46.830Z,23.58
2018-07-31T00:26:52.307Z,23.55
2018-07-31T00:29:59.133Z,23.53
2018-07-31T00:33:05.285Z,23.51
2018-07-31T00:36:11.116Z,23.48
2018-07-31T00:39:16.060Z,23.46
2018-07-31T00:42:22.265Z,23.42
2018-07-31T00:45:29.205Z,23.41
2018-07-31T00:48:34.757Z,23.39
2018-07-31T00:51:41.144Z,23.36
2018-07-31T00:54:47.043Z,23.32
2018-07-31T00:57:53.250Z,23.31
2018-07-31T01:00:59.501Z,23.29
2018-07-31T01:04:06.302Z,23.25
2018-07-31T01:07:12.345Z,23.22
2018-07-31T01:10:18.305Z,23.18
2018-07-31T01:13:23.657Z,23.15
2018-07-31T01:16:28.866Z,23.12
2018-07-31T01:19:34.995Z,23.10
2018-07-31T01:22:42.015Z,23.08
2018-07-31T01:25:48.559Z,23.05
2018-07-31T01:28:54.049Z,23.02
2018-07-31T01:31:59.631Z,23.00
2018-07-31T01:35:06.649Z,22.97
2018-07-31T01:38:12.455Z,22.93
2018-07-31T01:41:19.721Z,22.90
2018-07-31T01:44:25.493Z,22.86
2018-07-31T01:47:31.750Z,22.86
2018-07-31T01:50:37.628Z,22.84
2018-07-31T01:53:43.253Z,22.82
2018-07-31T01:56:49.345Z,22.79
2018-07-31T01:59:55.289Z,22.77
2018-07-31T02:03:01.454Z,22.75
2018-07-31T02:06:07.409Z,22.73
2018-07-31T02:09:14.397Z,22.72
2018-07-31T02:12:20.578Z,22.68
2018-07-31T02:15:26.247Z,22.66
2018-07-31T02:18:31.477Z,22.64
2018-07-31T02:21:36.938Z,22.62
2018-07-31T02:24:42.998Z,22.61
2018-07-31T02:27:48.626Z,22.57
2018-07-31T02:30:53.531Z,22.54
2018-07-31T02:34:00.052Z,22.52
2018-07-31T02:37:06.877Z,22.51
2018-07-31T02:40:14.458Z,22.49
2018-07-31T02:43:20.275Z,22.48
2018-07-31T02:46:26.869Z,22.45
2018-07-31T02:49:32.894Z,22.44
2018-07-31T02:52:39.099Z,22.40
2018-07-31T02:55:44.510Z,22.38
2018-07-31T02:58:50.655Z,22.37
2018-07-31T03:01:56.597Z,22.34
2018-07-31T03:05:02.538Z,22.32
2018-07-31T03:08:08.824Z,22.29
2018-07-31T03:11:16.053Z,22.28
2018-07-31T03:14:21.571Z,22.26
2018-07-31T03:17:27.302Z,22.25
2018-07-31T03:20:32.483Z,22.22
2018-07-31T03:23:38.967Z,22.22
2018-07-31T03:26:44.502Z,22.20
2018-07-31T03:29:50.899Z,22.19
2018-07-31T03:32:56.851Z,22.18
2018-07-31T03:36:03.005Z,22.16
2018-07-31T03:39:10.062Z,22.16
2018-07-31T03:42:16.153Z,22.14
2018-07-31T03:45:22.206Z,22.13
2018-07-31T03:48:28.910Z,22.11
2018-07-31T03:51:34.909Z,22.10
2018-07-31T03:54:42.353Z,22.08
2018-07-31T03:57:48.424Z,22.09
2018-07-31T04:00:55.406Z,22.06
2018-07-31T04:04:01.376Z,22.04
2018-07-31T04:07:07.480Z,22.02
2018-07-31T04:10:14.058Z,22.02
2018-07-31T04:13:20.797Z,22.01
2018-07-31T04:16:25.969Z,22.00
2018-07-31T04:19:33.023Z,21.99
2018-07-31T04:22:39.276Z,21.99
2018-07-31T04:25:45.276Z,21.98
2018-07-31T04:28:51.210Z,21.98
2018-07-31T04:31:57.190Z,21.97
2018-07-31T04:35:04.039Z,21.96
2018-07-31T04:38:11.613Z,21.97
2018-07-31T04:41:18.619Z,21.95
2018-07-31T04:44:25.411Z,21.96
2018-07-31T04:47:32.778Z,21.96
2018-07-31T04:50:39.498Z,21.97
2018-07-31T04:53:45.225Z,21.96
2018-07-31T04:56:52.173Z,21.97
2018-07-31T04:59:59.541Z,21.97
2018-07-31T05:03:05.286Z,21.99
2018-07-31T05:06:11.302Z,21.99
2018-07-31T05:09:17.185Z,22.00
2018-07-31T05:12:24.046Z,22.02
2018-07-31T05:15:30.390Z,22.03
2018-07-31T05:18:36.348Z,22.04
2018-07-31T05:21:42.314Z,22.05
2018-07-31T05:24:49.102Z,22.07
2018-07-31T05:27:55.169Z,22.09
2018-07-31T05:31:02.078Z,22.12
2018-07-31T05:34:07.815Z,22.16
2018-07-31T05:37:13.313Z,22.19
2018-07-31T05:40:19.430Z,22.21
2018-07-31T05:43:25.457Z,22.24
2018-07-31T05:46:32.757Z,22.27
2018-07-31T05:49:37.894Z,22.29
2018-07-31T05:52:43.563Z,22.31
2018-07-31T05:55:49.006Z,22.33
2018-07-31T05:58:55.151Z,22.37
2018-07-31T06:02:01.002Z,22.40
2018-07-31T06:05:06.406Z,22.45
2018-07-31T06:08:12.218Z,22.48
2018-07-31T06:11:18.334Z,22.51
2018-07-31T06:14:23.988Z,22.55
2018-07-31T06:17:29.714Z,22.59
2018-07-31T06:20:36.622Z,22.65
2018-07-31T06:23:42.582Z,22.70
2018-07-31T06:26:47.723Z,22.74
2018-07-31T06:29:53.965Z,22.82
2018-07-31T06:32:59.760Z,22.87
2018-07-31T06:36:06.307Z,22.94
2018-07-31T06:39:11.491Z,23.00
2018-07-31T06:42:16.297Z,23.07
2018-07-31T06:45:21.444Z,23.12
2018-07-31T06:48:26.691Z,23.17
2018-07-31T06:51:33.630Z,23.24
2018-07-31T06:54:39.566Z,23.30
2018-07-31T06:57:45.416Z,23.34
2018-07-31T07:00:51.277Z,23.38
2018-07-31T07:03:58.117Z,23.43
2018-07-31T07:07:04.034Z,23.49
2018-07-31T07:10:10.094Z,23.56
2018-07-31T07:13:15.931Z,23.62
2018-07-31T07:16:21.161Z,23.69
2018-07-31T07:19:27.230Z,23.76
2018-07-31T07:22:34.070Z,23.82
2018-07-31T07:25:40.520Z,23.89
2018-07-31T07:28:47.418Z,23.97
2018-07-31T07:31:54.350Z,24.03
2018-07-31T07:35:00.118Z,24.10
2018-07-31T07:38:05.267Z,24.16
2018-07-31T07:41:11.508Z,24.22
2018-07-31T07:44:17.260Z,24.31
2018-07-31T07:47:23.325Z,24.38
2018-07-31T07:50:28.401Z,24.46
2018-07-31T07:53:33.521Z,24.55
2018-07-31T07:56:38.649Z,24.62
2018-07-31T07:59:43.922Z,24.70
2018-07-31T08:02:49.959Z,24.79
2018-07-31T08:05:56.030Z,24.89
2018-07-31T08:09:02.011Z,24.99
2018-07-31T08:12:07.166Z,25.10
2018-07-31T08:15:13.109Z,25.17
2018-07-31T08:18:18.539Z,25.27
2018-07-31T08:21:24.413Z,25.35
2018-07-31T08:24:30.771Z,25.45
2018-07-31T08:27:37.578Z,25.55
2018-07-31T08:30:44.399Z,25.66
2018-07-31T08:33:51.512Z,25.75
2018-07-31T08:36:57.763Z,25.84
2018-07-31T08:40:04.750Z,25.95
2018-07-31T08:43:11.471Z,26.04
2018-07-31T08:46:17.817Z,26.15
2018-07-31T08:49:24.577Z,26.23
2018-07-31T08:52:30.604Z,26.33
2018-07-31T08:55:37.432Z,26.43
2018-07-31T08:58:43.293Z,26.52
2018-07-31T09:01:48.589Z,26.61
2018-07-31T09:04:54.997Z,26.71
2018-07-31T09:08:01.113Z,26.80
2018-07-31T09:11:07.150Z,26.88
2018-07-31T09:14:13.080Z,26.97
2018-07-31T09:17:19.754Z,27.07
2018-07-31T09:20:26.022Z,27.15
2018-07-31T09:23:32.834Z,27.26
2018-07-31T09:26:38.885Z,27.35
2018-07-31T09:29:45.566Z,27.49
2018-07-31T09:32:57.300Z,27.61
2018-07-31T09:36:03.754Z,27.70
2018-07-31T09:39:10.790Z,27.84
2018-07-31T09:42:16.531Z,27.96
2018-07-31T09:45:21.611Z,28.04
2018-07-31T09:48:26.776Z,28.14
2018-07-31T09:51:33.336Z,28.25
2018-07-31T09:54:39.330Z,28.31
2018-07-31T09:57:45.257Z,28.40
2018-07-31T10:00:56.287Z,28.45
2018-07-31T10:04:01.733Z,28.51
2018-07-31T10:07:08.777Z,28.56
2018-07-31T10:10:15.723Z,28.62
2018-07-31T10:13:21.750Z,28.68
2018-07-31T10:16:28.926Z,28.72
2018-07-31T10:19:35.757Z,28.77
2018-07-31T10:22:42.630Z,28.81
2018-07-31T10:25:49.486Z,28.87
2018-07-31T10:28:56.012Z,28.95
2018-07-31T10:32:01.143Z,29.00
2018-07-31T10:35:07.387Z,29.06
2018-07-31T10:38:13.287Z,29.14
2018-07-31T10:41:19.847Z,29.21
2018-07-31T10:44:26.918Z,29.29
2018-07-31T10:47:33.174Z,29.36
2018-07-31T10:50:39.643Z,29.43
2018-07-31T10:53:45.889Z,29.48
2018-07-31T10:56:52.271Z,29.55
2018-07-31T10:59:58.193Z,29.60
2018-07-31T11:03:04.282Z,29.67
2018-07-31T11:06:11.800Z,29.73
2018-07-31T11:09:17.542Z,29.80
2018-07-31T11:12:23.602Z,29.87
2018-07-31T11:15:30.143Z,29.92
2018-07-31T11:18:34.969Z,29.98
2018-07-31T11:21:40.891Z,30.03
2018-07-31T11:24:46.431Z,30.10
2018-07-31T11:27:52.281Z,30.18
2018-07-31T11:30:57.728Z,30.23
2018-07-31T11:34:04.232Z,30.29
2018-07-31T11:37:09.397Z,30.34
2018-07-31T11:40:14.554Z,30.40
2018-07-31T11:43:19.653Z,30.47
2018-07-31T11:46:24.773Z,30.53
2018-07-31T11:49:30.220Z,30.56
2018-07-31T11:52:35.687Z,30.59
2018-07-31T11:55:41.949Z,30.62
2018-07-31T11:58:48.727Z,30.63
2018-07-31T12:01:55.132Z,30.64
2018-07-31T12:05:00.610Z,30.68
2018-07-31T12:08:06.845Z,30.69
2018-07-31T12:11:12.570Z,30.70
2018-07-31T12:14:18.565Z,30.71
2018-07-31T12:17:25.640Z,30.71
2018-07-31T12:20:31.947Z,30.74
2018-07-31T12:23:37.651Z,30.77
2018-07-31T12:26:43.687Z,30.81
2018-07-31T12:29:49.659Z,30.85
2018-07-31T12:32:56.899Z,30.88
2018-07-31T12:36:03.203Z,30.90
2018-07-31T12:39:11.156Z,30.91
2018-07-31T12:42:18.405Z,30.96
2018-07-31T12:45:24.125Z,30.97
2018-07-31T12:48:31.156Z,30.99
2018-07-31T12:51:37.079Z,30.98
2018-07-31T12:54:43.267Z,31.00
2018-07-31T12:57:48.954Z,30.98
2018-07-31T13:00:55.158Z,30.99
2018-07-31T13:04:00.963Z,30.98
2018-07-31T13:07:06.274Z,30.97
2018-07-31T13:10:12.221Z,30.95
2018-07-31T13:13:19.435Z,30.92
2018-07-31T13:16:25.697Z,30.92
2018-07-31T13:19:31.882Z,30.93
2018-07-31T13:22:37.023Z,30.93
2018-07-31T13:25:42.471Z,30.93
2018-07-31T13:28:48.624Z,30.94
2018-07-31T13:31:55.518Z,30.94
2018-07-31T13:35:02.841Z,30.98
2018-07-31T13:38:08.589Z,31.00
2018-07-31T13:41:15.258Z,30.99
2018-07-31T13:44:22.132Z,30.98
2018-07-31T13:47:29.258Z,30.97
2018-07-31T13:50:34.985Z,30.95
2018-07-31T13:53:41.174Z,30.96
2018-07-31T13:56:47.020Z,30.96
2018-07-31T13:59:52.969Z,30.94
2018-07-31T14:02:58.096Z,30.95
2018-07-31T14:06:03.209Z,30.97
2018-07-31T14:09:10.231Z,30.97
2018-07-31T14:12:15.314Z,30.98
2018-07-31T14:15:20.829Z,31.02
2018-07-31T14:18:27.038Z,31.04
2018-07-31T14:21:32.169Z,31.07
2018-07-31T14:24:38.022Z,31.09
2018-07-31T14:27:43.151Z,31.12
2018-07-31T14:30:49.649Z,31.12
2018-07-31T14:33:55.786Z,31.14
2018-07-31T14:37:01.348Z,31.15
2018-07-31T14:40:06.483Z,31.17
2018-07-31T14:43:12.981Z,31.21
2018-07-31T14:46:18.494Z,31.28
2018-07-31T14:49:24.394Z,31.36
2018-07-31T14:52:30.363Z,31.46
2018-07-31T14:55:36.345Z,31.55
2018-07-31T14:58:42.640Z,31.67
2018-07-31T15:01:48.834Z,31.78
2018-07-31T15:04:54.386Z,31.90
2018-07-31T15:07:59.694Z,31.99
2018-07-31T15:11:05.550Z,32.07
2018-07-31T15:14:11.276Z,32.15
2018-07-31T15:17:17.534Z,32.20
2018-07-31T15:20:23.214Z,32.31
2018-07-31T15:23:28.998Z,32.36
2018-07-31T15:26:35.420Z,32.42
2018-07-31T15:29:42.484Z,32.45
2018-07-31T15:32:48.790Z,32.49
2018-07-31T15:35:55.178Z,32.49
2018-07-31T15:39:00.641Z,32.51
2018-07-31T15:42:06.360Z,32.46
2018-07-31T15:45:12.446Z,32.42
2018-07-31T15:48:18.745Z,32.39
2018-07-31T15:51:25.369Z,32.36
2018-07-31T15:54:32.404Z,32.38
2018-07-31T15:57:38.428Z,32.40
2018-07-31T16:00:44.563Z,32.44
2018-07-31T16:03:51.237Z,32.46
2018-07-31T16:06:57.478Z,32.47
2018-07-31T16:10:04.665Z,32.47
2018-07-31T16:13:10.302Z,32.47
2018-07-31T16:16:17.457Z,32.47
2018-07-31T16:19:23.415Z,32.49
2018-07-31T16:22:29.412Z,32.49
2018-07-31T16:25:35.519Z,32.44
2018-07-31T16:28:41.609Z,32.49
2018-07-31T16:31:46.765Z,32.50
2018-07-31T16:34:53.205Z,32.49
2018-07-31T16:37:59.415Z,32.47
2018-07-31T16:41:04.952Z,32.47
2018-07-31T16:44:11.651Z,32.46
2018-07-31T16:47:17.957Z,32.45
2018-07-31T16:50:23.951Z,32.44
2018-07-31T16:53:31.662Z,32.42
2018-07-31T16:56:37.905Z,32.38
2018-07-31T16:59:44.275Z,32.33
2018-07-31T17:02:49.437Z,32.30
2018-07-31T17:05:56.878Z,32.25
2018-07-31T17:09:02.830Z,32.23
2018-07-31T17:12:09.039Z,32.18
2018-07-31T17:15:14.771Z,32.12
2018-07-31T17:18:21.133Z,32.05
2018-07-31T17:21:27.162Z,32.01
2018-07-31T17:24:33.829Z,31.91
2018-07-31T17:27:39.963Z,31.84
2018-07-31T17:30:46.866Z,31.73
2018-07-31T17:33:53.674Z,31.55
2018-07-31T17:37:00.965Z,31.47
2018-07-31T17:40:07.365Z,31.35
2018-07-31T17:43:14.133Z,31.16
2018-07-31T17:46:20.281Z,30.98
2018-07-31T17:49:25.985Z,30.83
2018-07-31T17:52:32.005Z,30.66
2018-07-31T17:55:38.373Z,30.47
2018-07-31T17:58:44.466Z,30.35
2018-07-31T18:01:50.118Z,30.17
2018-07-31T18:04:55.251Z,30.06
2018-07-31T18:08:02.396Z,29.95
2018-07-31T18:11:09.391Z,29.82
2018-07-31T18:14:16.862Z,29.69
2018-07-31T18:17:22.124Z,29.59
2018-07-31T18:20:27.474Z,29.45
2018-07-31T18:23:33.401Z,29.35
2018-07-31T18:26:41.218Z,29.24
2018-07-31T18:29:46.721Z,29.13
2018-07-31T18:32:57.466Z,29.03
2018-07-31T18:36:03.555Z,28.92
2018-07-31T18:39:14.086Z,28.84
2018-07-31T18:42:19.096Z,28.74
2018-07-31T18:45:25.160Z,28.64
2018-07-31T18:48:30.934Z,28.55
2018-07-31T18:51:37.982Z,28.44
2018-07-31T18:54:43.795Z,28.35
2018-07-31T18:57:50.648Z,28.27
2018-07-31T19:00:56.601Z,28.17
2018-07-31T19:04:02.873Z,28.09
2018-07-31T19:07:09.609Z,28.02
2018-07-31T19:10:15.592Z,27.89
2018-07-31T19:13:20.778Z,27.81
2018-07-31T19:16:27.200Z,27.71
2018-07-31T19:19:32.961Z,27.61
2018-07-31T19:22:39.855Z,27.54
2018-07-31T19:25:46.042Z,27.43
2018-07-31T19:28:51.881Z,27.34
2018-07-31T19:31:59.010Z,27.25
2018-07-31T19:35:05.154Z,27.15
2018-07-31T19:38:10.654Z,27.07
2018-07-31T19:41:15.999Z,26.98
2018-07-31T19:44:22.133Z,26.90
2018-07-31T19:47:27.914Z,26.79
2018-07-31T19:50:34.725Z,26.71
2018-07-31T19:53:40.993Z,26.61
2018-07-31T19:56:48.278Z,26.53
2018-07-31T19:59:53.438Z,26.43
2018-07-31T20:02:58.864Z,26.35
2018-07-31T20:06:04.890Z,26.28
2018-07-31T20:09:15.525Z,26.19
2018-07-31T20:12:21.038Z,26.09
2018-07-31T20:15:26.876Z,26.01
2018-07-31T20:18:33.529Z,25.96
2018-07-31T20:21:39.809Z,25.85
2018-07-31T20:24:44.789Z,25.78
2018-07-31T20:27:50.223Z,25.71
2018-07-31T20:30:56.716Z,25.64
2018-07-31T20:34:25.802Z,25.55
2018-07-31T20:37:43.958Z,25.46
2018-07-31T20:40:49.444Z,25.39
2018-07-31T20:43:55.442Z,25.33
2018-07-31T20:47:01.776Z,25.27
2018-07-31T20:50:08.720Z,25.20
2018-07-31T20:53:13.996Z,25.15
2018-07-31T20:56:19.735Z,25.10
2018-07-31T20:59:25.567Z,25.07
2018-07-31T21:02:31.785Z,24.99
2018-07-31T21:05:38.302Z,24.93
2018-07-31T21:08:44.021Z,24.87
2018-07-31T21:11:51.556Z,24.82
2018-07-31T21:14:57.782Z,24.77
2018-07-31T21:18:03.469Z,24.74
2018-07-31T21:21:10.011Z,24.70
2018-07-31T21:24:16.258Z,24.68
2018-07-31T21:27:21.457Z,24.63
2018-07-31T21:30:26.658Z,24.58
2018-07-31T21:33:32.980Z,24.52
2018-07-31T21:36:38.669Z,24.48
2018-07-31T21:39:44.316Z,24.45
2018-07-31T21:42:50.017Z,24.41
2018-07-31T21:45:55.135Z,24.37
2018-07-31T21:49:00.336Z,24.34
2018-07-31T21:52:05.505Z,24.31
2018-07-31T21:55:10.958Z,24.25
2018-07-31T21:58:17.002Z,24.19
2018-07-31T22:01:23.180Z,24.17
2018-07-31T22:04:28.762Z,24.11
2018-07-31T22:07:35.832Z,24.09
2018-07-31T22:10:43.044Z,24.06
2018-07-31T22:13:49.850Z,24.01
2018-07-31T22:16:56.490Z,23.96
2018-07-31T22:20:01.692Z,23.92
2018-07-31T22:23:08.229Z,23.87
2018-07-31T22:26:14.373Z,23.84
2018-07-31T22:29:20.106Z,23.79
2018-07-31T22:32:25.942Z,23.75
2018-07-31T22:35:31.037Z,23.70
2018-07-31T22:38:36.783Z,23.68
2018-07-31T22:41:42.598Z,23.62
2018-07-31T22:44:47.706Z,23.59
2018-07-31T22:47:52.919Z,23.56
2018-07-31T22:50:58.197Z,23.52
2018-07-31T22:54:04.337Z,23.49
2018-07-31T22:57:09.489Z,23.46
2018-07-31T23:00:15.910Z,23.43
2018-07-31T23:03:21.643Z,23.42
2018-07-31T23:06:26.468Z,23.40
2018-07-31T23:09:32.929Z,23.36
2018-07-31T23:12:39.543Z,23.32
2018-07-31T23:15:44.635Z,23.29
2018-07-31T23:18:49.742Z,23.29
2018-07-31T23:21:55.871Z,23.27
2018-07-31T23:25:02.021Z,23.22
2018-07-31T23:28:07.250Z,23.19
2018-07-31T23:31:13.051Z,23.16
2018-07-31T23:34:19.089Z,23.13
2018-07-31T23:37:25.393Z,23.11
2018-07-31T23:40:30.533Z,23.08
2018-07-31T23:43:35.641Z,23.06
2018-07-31T23:46:40.770Z,23.04
2018-07-31T23:49:45.878Z,23.01
2018-07-31T23:52:51.039Z,22.98
2018-07-31T23:55:57.501Z,22.96
2018-07-31T23:59:04.238Z,22.93
